createdAt,value
2022-11-28T00:01:43.407Z,49.80
2022-11-28T00:04:11.590Z,45.97
2022-11-28T00:06:47.174Z,52.92
2022-11-28T00:09:16.311Z,62.63
2022-11-28T00:11:45.433Z,55.25
2022-11-28T00:14:13.226Z,56.28
2022-11-28T00:16:40.112Z,47.47
2022-11-28T00:19:08.181Z,55.78
2022-11-28T00:21:35.980Z,58.30
2022-11-28T00:24:03.402Z,48.03
2022-11-28T00:26:35.561Z,62.28
2022-11-28T00:29:03.232Z,47.50
2022-11-28T00:31:33.418Z,47.83
2022-11-28T00:34:02.295Z,47.67
2022-11-28T00:36:31.055Z,39.50
2022-11-28T00:38:57.977Z,51.35
2022-11-28T00:41:45.076Z,41.22
2022-11-28T00:44:46.121Z,38.92
2022-11-28T00:47:26.819Z,52.55
2022-11-28T00:49:54.140Z,39.95
2022-11-28T00:52:21.168Z,59.03
2022-11-28T00:55:08.322Z,41.85
2022-11-28T00:58:09.332Z,39.80
2022-11-28T01:00:49.612Z,49.33
2022-11-28T01:03:16.743Z,40.35
2022-11-28T01:05:43.782Z,46.25
2022-11-28T01:08:11.176Z,43.58
2022-11-28T01:10:43.554Z,47.53
2022-11-28T01:13:31.088Z,45.97
2022-11-28T01:16:12.856Z,37.80
2022-11-28T01:18:40.574Z,48.67
2022-11-28T01:21:08.599Z,44.83
2022-11-28T01:23:35.824Z,46.25
2022-11-28T01:26:07.145Z,40.70
2022-11-28T01:28:35.605Z,39.55
2022-11-28T01:31:07.791Z,45.15
2022-11-28T01:33:35.132Z,42.63
2022-11-28T01:36:03.285Z,44.05
2022-11-28T01:38:30.467Z,42.63
2022-11-28T01:41:18.247Z,33.65
2022-11-28T01:44:21.135Z,39.92
2022-11-28T01:47:01.791Z,40.15
2022-11-28T01:49:38.029Z,37.38
2022-11-28T01:52:12.135Z,40.72
2022-11-28T01:57:43.639Z,46.40
2022-11-28T02:00:14.628Z,37.53
2022-11-28T02:02:47.951Z,38.72
2022-11-28T02:05:16.737Z,42.00
2022-11-28T02:07:44.714Z,44.22
2022-11-28T02:10:18.908Z,48.97
2022-11-28T02:13:26.124Z,46.33
2022-11-28T02:16:56.130Z,43.50
2022-11-28T02:20:01.646Z,39.50
2022-11-28T02:22:41.633Z,44.08
2022-11-28T02:25:25.824Z,40.35
2022-11-28T02:30:52.319Z,40.58
2022-11-28T02:33:31.789Z,40.38
2022-11-28T02:36:16.500Z,40.33
2022-11-28T02:39:03.050Z,40.55
2022-11-28T02:42:02.141Z,38.88
2022-11-28T02:45:15.144Z,37.97
2022-11-28T02:48:04.786Z,39.60
2022-11-28T02:50:42.091Z,41.90
2022-11-28T02:53:14.294Z,34.65
2022-11-28T02:56:02.171Z,41.75
2022-11-28T02:58:43.592Z,33.17
2022-11-28T03:01:18.040Z,41.53
2022-11-28T03:03:55.228Z,49.70
2022-11-28T03:06:58.392Z,39.70
2022-11-28T03:09:53.392Z,32.53
2022-11-28T03:12:29.569Z,36.47
2022-11-28T03:15:02.167Z,34.70
2022-11-28T03:18:08.242Z,37.40
2022-11-28T03:21:14.132Z,32.33
2022-11-28T03:24:03.144Z,42.13
2022-11-28T03:26:43.049Z,35.00
2022-11-28T03:29:32.034Z,38.47
2022-11-28T03:32:06.967Z,33.50
2022-11-28T03:34:41.070Z,38.00
2022-11-28T03:37:15.724Z,34.92
2022-11-28T03:39:49.321Z,34.83
2022-11-28T03:42:39.218Z,32.80
2022-11-28T03:45:26.509Z,32.17
2022-11-28T03:48:11.604Z,34.97
2022-11-28T03:51:03.709Z,36.08
2022-11-28T03:53:49.001Z,33.33
2022-11-28T03:56:47.322Z,29.48
2022-11-28T03:59:25.795Z,39.17
2022-11-28T04:02:34.224Z,33.00
2022-11-28T04:05:54.257Z,34.13
2022-11-28T04:08:29.033Z,30.63
2022-11-28T04:11:21.139Z,40.17
2022-11-28T04:13:54.766Z,33.25
2022-11-28T04:16:31.515Z,35.53
2022-11-28T04:19:07.682Z,36.92
2022-11-28T04:22:18.356Z,32.28
2022-11-28T04:25:10.600Z,37.42
2022-11-28T04:28:05.440Z,38.17
2022-11-28T04:30:33.605Z,31.38
2022-11-28T04:33:06.055Z,31.83
2022-11-28T04:35:38.002Z,35.55
2022-11-28T04:38:06.933Z,36.47
2022-11-28T04:41:07.305Z,32.35
2022-11-28T04:44:22.193Z,33.55
2022-11-28T04:47:04.185Z,41.47
2022-11-28T04:49:32.099Z,38.28
2022-11-28T04:52:23.704Z,45.17
2022-11-28T04:55:30.189Z,37.50
2022-11-28T04:58:43.264Z,31.92
2022-11-28T05:01:29.155Z,37.47
2022-11-28T05:03:56.700Z,36.17
2022-11-28T05:06:32.892Z,40.65
2022-11-28T05:09:00.368Z,36.22
2022-11-28T05:11:28.332Z,34.25
2022-11-28T05:13:56.235Z,34.08
2022-11-28T05:16:23.906Z,32.67
2022-11-28T05:18:51.060Z,38.33
2022-11-28T05:21:18.178Z,37.00
2022-11-28T05:23:46.110Z,40.40
2022-11-28T05:26:19.998Z,36.58
2022-11-28T05:28:50.327Z,38.25
2022-11-28T05:31:20.602Z,31.63
2022-11-28T05:33:47.526Z,42.92
2022-11-28T05:36:16.493Z,29.00
2022-11-28T05:38:44.301Z,32.00
2022-11-28T05:41:43.224Z,36.35
2022-11-28T05:44:26.812Z,33.45
2022-11-28T05:46:54.336Z,38.05
2022-11-28T05:49:41.542Z,35.47
2022-11-28T05:52:43.275Z,41.35
2022-11-28T05:55:44.250Z,36.40
2022-11-28T05:58:24.827Z,33.75
2022-11-28T06:01:12.265Z,39.35
2022-11-28T06:04:00.010Z,41.50
2022-11-28T06:09:01.639Z,33.03
2022-11-28T06:11:30.957Z,62.58
2022-11-28T06:14:19.299Z,33.17
2022-11-28T06:16:59.978Z,33.63
2022-11-28T06:19:27.062Z,41.38
2022-11-28T06:21:56.282Z,37.53
2022-11-28T06:25:17.392Z,37.53
2022-11-28T06:27:58.967Z,34.97
2022-11-28T06:30:26.679Z,46.03
2022-11-28T06:32:53.595Z,38.80
2022-11-28T06:35:40.380Z,36.60
2022-11-28T06:38:21.293Z,39.13
2022-11-28T06:41:12.402Z,37.97
2022-11-28T06:43:52.806Z,42.33
2022-11-28T06:46:21.370Z,38.47
2022-11-28T06:49:08.279Z,39.33
2022-11-28T06:52:09.264Z,33.80
2022-11-28T06:54:49.924Z,37.05
2022-11-28T06:57:17.067Z,36.15
2022-11-28T06:59:44.313Z,40.78
2022-11-28T07:02:11.980Z,41.80
2022-11-28T07:04:39.076Z,34.22
2022-11-28T07:07:06.227Z,40.50
2022-11-28T10:14:45.053Z,41.53
2022-11-28T10:17:34.190Z,39.22
2022-11-28T10:20:12.305Z,47.60
2022-11-28T10:22:50.541Z,43.17
2022-11-28T10:25:24.494Z,47.83
2022-11-28T10:27:51.592Z,43.92
2022-11-28T10:30:23.505Z,47.40
2022-11-28T10:33:23.433Z,43.22
2022-11-28T10:36:47.486Z,55.42
2022-11-28T10:39:28.498Z,59.60
2022-11-28T10:42:34.520Z,46.28
2022-11-28T10:45:27.030Z,68.05
2022-11-28T10:48:37.978Z,51.17
2022-11-28T10:51:03.718Z,56.67
2022-11-28T10:54:00.789Z,54.17
2022-11-28T10:56:46.134Z,57.00
2022-11-28T10:59:33.898Z,56.28
2022-11-28T11:02:24.782Z,60.83
2022-11-28T11:04:52.011Z,67.30
2022-11-28T11:07:45.495Z,65.07
2022-11-28T11:10:58.440Z,54.05
2022-11-28T11:14:20.576Z,64.50
2022-11-28T11:17:01.954Z,55.53
2022-11-28T11:19:32.463Z,58.75
2022-11-28T11:21:59.445Z,69.18
2022-11-28T11:24:26.874Z,53.72
2022-11-28T11:26:54.572Z,55.80
2022-11-28T11:29:51.426Z,56.85
2022-11-28T11:32:32.513Z,65.75
2022-11-28T11:34:59.900Z,50.38
2022-11-28T11:37:46.535Z,51.85
2022-11-28T11:40:47.445Z,49.05
2022-11-28T11:43:48.522Z,54.72
2022-11-28T11:46:29.096Z,54.88
2022-11-28T11:48:56.002Z,54.63
2022-11-28T11:51:27.705Z,56.20
2022-11-28T11:54:06.940Z,55.53
2022-11-28T11:56:38.795Z,58.88
2022-11-28T11:59:13.920Z,46.15
2022-11-28T12:01:44.343Z,46.75
2022-11-28T12:04:46.269Z,45.67
2022-11-28T12:07:52.920Z,46.40
2022-11-28T12:10:23.900Z,56.38
2022-11-28T12:12:51.231Z,46.60
2022-11-28T12:15:48.694Z,49.15
2022-11-28T12:18:51.254Z,44.78
2022-11-28T12:21:27.313Z,46.78
2022-11-28T12:24:39.485Z,58.38
2022-11-28T12:27:57.558Z,51.55
2022-11-28T12:31:10.503Z,38.63
2022-11-28T12:34:15.964Z,36.47
2022-11-28T12:37:21.430Z,40.92
2022-11-28T12:40:18.214Z,34.20
2022-11-28T12:43:14.518Z,41.92
2022-11-28T12:46:46.574Z,36.13
2022-11-28T12:49:42.872Z,34.13
2022-11-28T12:52:24.214Z,38.72
2022-11-28T12:55:31.868Z,35.92
2022-11-28T12:58:17.718Z,37.85
2022-11-28T13:01:08.540Z,36.15
2022-11-28T13:03:50.794Z,35.15
2022-11-28T13:06:44.958Z,49.00
2022-11-28T13:09:30.566Z,33.97
2022-11-28T13:12:03.815Z,34.88
2022-11-28T13:14:33.687Z,52.60
2022-11-28T13:17:11.427Z,43.65
2022-11-28T13:20:03.549Z,39.80
2022-11-28T13:22:50.427Z,36.88
2022-11-28T13:25:36.561Z,34.60
2022-11-28T13:28:06.470Z,39.88
2022-11-28T13:31:04.067Z,39.03
2022-11-28T13:33:52.480Z,40.85
2022-11-28T13:40:10.520Z,41.25
2022-11-28T13:43:23.548Z,50.47
2022-11-28T13:46:24.551Z,43.63
2022-11-28T13:49:20.942Z,42.47
2022-11-28T13:51:49.136Z,47.78
2022-11-28T13:54:36.550Z,43.25
2022-11-28T13:57:40.539Z,44.67
2022-11-28T14:00:24.492Z,50.60
2022-11-28T14:02:57.296Z,48.20
2022-11-28T14:05:49.541Z,47.15
2022-11-28T14:08:40.202Z,43.65
2022-11-28T14:11:32.563Z,47.55
2022-11-28T14:14:28.083Z,64.30
2022-11-28T14:17:39.597Z,43.60
2022-11-28T14:20:23.408Z,49.35
2022-11-28T14:23:15.499Z,48.42
2022-11-28T14:25:47.643Z,50.80
2022-11-28T14:28:37.014Z,50.03
2022-11-28T14:31:24.705Z,55.08
2022-11-28T14:34:40.188Z,53.80
2022-11-28T14:37:35.551Z,58.45
2022-11-28T14:41:08.535Z,46.85
2022-11-28T14:44:50.653Z,49.42
2022-11-28T14:47:39.702Z,52.88
2022-11-28T14:50:08.052Z,47.72
2022-11-28T14:52:40.336Z,55.83
2022-11-28T14:55:35.612Z,50.03
2022-11-28T14:58:36.679Z,47.35
2022-11-28T15:01:47.265Z,48.85
2022-11-28T15:04:50.741Z,45.63
2022-11-28T15:07:35.343Z,49.25
2022-11-28T15:10:07.718Z,63.03
2022-11-28T15:12:58.647Z,57.50
2022-11-28T15:15:49.043Z,48.22
2022-11-28T15:18:19.369Z,51.58
2022-11-28T15:20:58.782Z,56.97
2022-11-28T15:23:30.405Z,52.47
2022-11-28T15:25:59.381Z,56.85
2022-11-28T15:28:29.211Z,52.75
2022-11-28T15:31:04.672Z,56.95
2022-11-28T15:33:39.957Z,49.17
2022-11-28T15:36:40.743Z,65.47
2022-11-28T15:39:46.522Z,52.38
2022-11-28T15:42:50.551Z,48.90
2022-11-28T15:45:35.452Z,55.55
2022-11-28T15:48:03.654Z,50.33
2022-11-28T15:50:34.056Z,61.28
2022-11-28T15:53:19.366Z,59.65
2022-11-28T15:56:27.607Z,60.35
2022-11-28T15:59:28.578Z,54.15
2022-11-28T16:02:23.612Z,58.80
2022-11-28T16:05:28.633Z,75.82
2022-11-28T16:08:41.667Z,75.38
2022-11-28T16:11:25.240Z,76.70
2022-11-28T16:13:55.990Z,71.95
2022-11-28T16:16:27.453Z,71.95
2022-11-28T16:19:01.420Z,81.32
2022-11-28T16:21:32.685Z,80.10
2022-11-28T16:24:01.794Z,74.53
2022-11-28T16:26:36.807Z,97.90
2022-11-28T16:29:10.523Z,86.00
2022-11-28T16:31:38.263Z,75.40
2022-11-28T16:34:06.134Z,70.43
2022-11-28T16:36:53.629Z,74.75
2022-11-28T16:39:54.845Z,67.97
2022-11-28T16:43:06.630Z,81.38
2022-11-28T16:45:47.702Z,69.50
2022-11-28T16:48:21.125Z,60.42
2022-11-28T16:51:11.571Z,80.53
2022-11-28T16:53:41.599Z,63.55
2022-11-28T16:56:31.799Z,80.13
2022-11-28T16:58:58.665Z,86.20
2022-11-28T17:01:25.882Z,67.85
2022-11-28T17:04:06.902Z,79.30
2022-11-28T17:07:12.631Z,67.55
2022-11-28T17:09:53.925Z,61.15
2022-11-28T17:12:25.779Z,77.75
2022-11-28T17:14:54.352Z,72.75
2022-11-28T17:17:24.548Z,80.35
2022-11-28T17:19:53.525Z,71.93
2022-11-28T17:22:27.159Z,74.15
2022-11-28T17:25:00.875Z,77.50
2022-11-28T17:27:28.194Z,76.85
2022-11-28T17:29:55.377Z,71.13
2022-11-28T17:32:22.480Z,69.53
2022-11-28T17:34:49.840Z,60.40
2022-11-28T17:37:26.257Z,58.33
2022-11-28T17:40:31.707Z,55.67
2022-11-28T17:43:38.903Z,63.47
2022-11-28T17:46:21.565Z,56.08
2022-11-28T17:48:50.072Z,55.50
2022-11-28T17:53:50.984Z,49.78
2022-11-28T17:56:18.269Z,59.03
2022-11-28T17:59:05.624Z,55.45
2022-11-28T18:01:46.551Z,62.38
2022-11-28T18:04:13.864Z,59.00
2022-11-28T18:17:03.728Z,54.90
2022-11-28T18:19:58.181Z,51.85
2022-11-28T18:22:37.777Z,51.22
2022-11-28T18:28:35.861Z,62.88
2022-11-28T18:31:12.554Z,66.28
2022-11-28T18:33:43.294Z,62.70
2022-11-28T18:36:20.217Z,60.08
2022-11-28T18:38:48.804Z,58.75
2022-11-28T18:41:35.796Z,59.10
2022-11-28T18:44:36.735Z,57.83
2022-11-28T18:47:18.013Z,54.60
2022-11-28T18:49:45.192Z,58.03
2022-11-28T18:52:37.589Z,54.65
2022-11-28T18:55:05.369Z,58.38
2022-11-28T18:57:34.524Z,53.28
2022-11-28T19:00:02.248Z,54.25
2022-11-28T19:02:30.462Z,61.58
2022-11-28T19:04:58.026Z,57.72
2022-11-28T19:07:26.146Z,49.40
2022-11-28T19:09:53.424Z,67.57
2022-11-28T19:12:21.291Z,56.40
2022-11-28T19:15:08.967Z,54.63
2022-11-28T19:18:10.074Z,42.83
2022-11-28T19:21:10.944Z,42.60
2022-11-28T19:23:51.910Z,47.30
2022-11-28T19:26:49.699Z,43.22
2022-11-28T19:29:50.732Z,49.13
2022-11-28T19:32:32.009Z,52.83
2022-11-28T19:35:19.897Z,42.80
2022-11-28T19:38:00.396Z,51.17
2022-11-28T19:40:49.794Z,54.92
2022-11-28T19:43:50.703Z,45.50
2022-11-28T19:46:35.441Z,61.83
2022-11-28T19:49:08.448Z,54.83
2022-11-28T19:51:35.645Z,59.88
2022-11-28T19:54:03.808Z,61.53
2022-11-28T19:56:33.209Z,54.83
2022-11-28T19:59:00.435Z,62.17
2022-11-28T20:01:40.767Z,58.17
2022-11-28T20:04:42.692Z,59.28
2022-11-28T20:07:23.669Z,51.97
2022-11-28T20:09:50.927Z,57.55
2022-11-28T20:12:18.032Z,61.25
2022-11-28T20:14:45.204Z,61.03
2022-11-28T20:17:13.482Z,68.07
2022-11-28T20:19:40.611Z,69.97
2022-11-28T20:22:07.746Z,67.35
2022-11-28T20:24:35.287Z,71.03
2022-11-28T20:27:02.422Z,83.70
2022-11-28T20:29:29.852Z,66.78
2022-11-28T20:31:57.419Z,71.63
2022-11-28T20:34:44.769Z,72.53
2022-11-28T20:37:45.784Z,77.75
2022-11-28T20:40:46.737Z,57.80
2022-11-28T20:43:50.736Z,73.60
2022-11-28T20:46:46.414Z,64.68
2022-11-28T20:49:46.882Z,56.63
2022-11-28T20:52:47.736Z,66.45
2022-11-28T20:55:43.264Z,68.03
2022-11-28T20:58:10.239Z,77.60
2022-11-28T21:00:59.738Z,69.60
2022-11-28T21:04:00.828Z,59.83
2022-11-28T21:07:01.736Z,67.90
2022-11-28T21:09:34.295Z,70.40
2022-11-28T21:12:01.365Z,61.63
2022-11-28T21:14:49.774Z,82.90
2022-11-28T21:17:30.402Z,67.15
2022-11-28T21:19:57.306Z,71.63
2022-11-28T21:22:45.721Z,78.00
2022-11-28T21:25:27.573Z,66.88
2022-11-28T21:27:54.567Z,77.15
2022-11-28T21:30:41.766Z,74.07
2022-11-28T21:33:42.813Z,69.65
2022-11-28T21:36:44.821Z,75.85
2022-11-28T21:39:46.153Z,75.82
2022-11-28T21:42:46.762Z,73.80
2022-11-28T21:45:27.728Z,66.82
2022-11-28T21:48:14.772Z,71.35
2022-11-28T21:51:09.020Z,69.97
2022-11-28T21:53:49.651Z,63.80
2022-11-28T21:56:17.199Z,69.50
2022-11-28T21:58:44.479Z,80.25
2022-11-28T22:01:33.809Z,76.25
2022-11-28T22:04:35.771Z,73.82
2022-11-28T22:07:13.028Z,75.18
2022-11-28T22:09:40.246Z,77.40
2022-11-28T22:12:07.750Z,70.88
2022-11-28T22:14:36.860Z,71.20
2022-11-28T22:17:07.549Z,71.90
2022-11-28T22:19:37.969Z,75.47
2022-11-28T22:22:05.545Z,82.20
2022-11-28T22:24:48.085Z,79.30
2022-11-28T22:27:32.585Z,72.15
2022-11-28T22:30:20.890Z,62.85
2022-11-28T22:33:01.391Z,65.10
2022-11-28T22:35:48.794Z,73.63
2022-11-28T22:38:29.295Z,61.13
2022-11-28T22:41:33.818Z,63.67
2022-11-28T22:44:35.791Z,62.88
2022-11-28T22:47:36.812Z,62.70
2022-11-28T22:50:17.585Z,63.63
2022-11-28T22:52:44.666Z,59.13
2022-11-28T22:55:11.686Z,63.67
2022-11-28T22:57:39.030Z,69.80
2022-11-28T23:00:09.754Z,91.00
2022-11-28T23:02:57.881Z,72.07
2022-11-28T23:05:39.569Z,73.30
2022-11-28T23:08:07.777Z,66.28
2022-11-28T23:10:37.687Z,65.00
2022-11-28T23:13:06.700Z,74.70
2022-11-28T23:15:34.993Z,57.17
2022-11-28T23:18:24.814Z,66.03
2022-11-28T23:21:05.647Z,59.15
2022-11-28T23:23:34.951Z,56.58
2022-11-28T23:26:07.992Z,63.72
2022-11-28T23:28:36.383Z,60.60
2022-11-28T23:31:27.085Z,57.45
2022-11-28T23:34:34.534Z,59.42
2022-11-28T23:37:14.834Z,55.17
2022-11-28T23:39:41.922Z,65.18
2022-11-28T23:42:28.910Z,57.53
2022-11-28T23:45:10.162Z,50.38
2022-11-28T23:47:37.373Z,58.42
2022-11-28T23:50:05.036Z,53.67
2022-11-28T23:52:51.789Z,50.90
2022-11-28T23:55:52.883Z,56.78
2022-11-28T23:58:51.027Z,66.55
